Time;durP1;ratioP1;P1;durP2;ratioP2;P2;SDS_P1;SDS_P2;PMS_P1;PMS_P2;Temp;Humidity;BMP_temperature;BMP_pressure;BME280_temperature;BME280_humidity;BME280_pressure;Samples;Min_cycle;Max_cycle;Signal;HPM_P1;HPM_P2
2022/05/09 00:00:32;;;;;;;1.17;0.60;;;12.80;72.30;;;;;;5090273;28;20237;-42
2022/05/09 00:02:59;;;;;;;0.30;0.30;;;12.80;72.40;;;;;;5082705;28;20204;-45
2022/05/09 00:05:28;;;;;;;2.03;0.60;;;12.80;72.40;;;;;;5083130;28;20200;-46
2022/05/09 00:07:57;;;;;;;0.50;0.50;;;12.80;73.30;;;;;;5085508;28;20264;-41
2022/05/09 00:10:27;;;;;;;0.87;0.57;;;12.80;72.50;;;;;;5086999;28;20545;-38
2022/05/09 00:12:55;;;;;;;0.63;0.60;;;12.80;72.60;;;;;;5087525;28;20752;-44
2022/05/09 00:15:23;;;;;;;2.90;0.90;;;12.80;72.70;;;;;;5086592;28;20203;-48
2022/05/09 00:17:50;;;;;;;1.20;0.63;;;12.80;72.70;;;;;;5084138;28;20207;-40
2022/05/09 00:20:18;;;;;;;0.80;0.67;;;12.80;72.80;;;;;;5088982;28;20209;-43
2022/05/09 00:22:51;;;;;;;1.70;0.90;;;12.80;72.80;;;;;;5089718;28;20203;-40
2022/05/09 00:25:22;;;;;;;3.10;1.13;;;12.80;72.80;;;;;;5083690;28;20231;-41
2022/05/09 00:27:49;;;;;;;1.97;1.03;;;12.70;72.70;;;;;;5083561;28;20666;-39
2022/05/09 00:30:17;;;;;;;3.37;1.00;;;12.70;72.80;;;;;;5089488;28;20589;-40
2022/05/09 00:32:44;;;;;;;2.53;1.13;;;12.80;72.80;;;;;;5098754;28;20206;-42
2022/05/09 00:35:13;;;;;;;0.87;0.80;;;12.70;72.70;;;;;;5082139;28;20259;-39
2022/05/09 00:37:40;;;;;;;1.27;0.80;;;12.70;72.70;;;;;;5089886;28;20668;-42
2022/05/09 00:40:09;;;;;;;1.13;0.70;;;12.70;72.60;;;;;;5092507;28;20277;-47
2022/05/09 00:42:40;;;;;;;0.97;0.80;;;12.70;72.50;;;;;;5084271;28;20197;-44
2022/05/09 00:45:08;;;;;;;1.10;0.60;;;12.70;72.40;;;;;;5081832;28;20534;-39
2022/05/09 00:47:35;;;;;;;1.33;0.70;;;12.80;72.40;;;;;;5086445;28;20623;-41
2022/05/09 00:50:07;;;;;;;3.13;0.73;;;12.80;72.20;;;;;;5078778;28;20202;-49
2022/05/09 00:52:40;;;;;;;3.73;0.87;;;12.70;72.00;;;;;;5077581;28;20196;-45
2022/05/09 00:55:12;;;;;;;2.93;0.80;;;12.70;71.90;;;;;;5090091;28;20193;-44
2022/05/09 00:57:50;;;;;;;0.53;0.53;;;12.70;71.90;;;;;;5087057;28;20813;-42
2022/05/09 01:00:20;;;;;;;2.37;0.80;;;12.70;71.80;;;;;;5083311;28;20198;-41
2022/05/09 01:02:55;;;;;;;1.80;0.60;;;12.70;71.60;;;;;;5096309;28;20204;-42
2022/05/09 01:05:22;;;;;;;1.60;0.63;;;12.70;71.60;;;;;;5087081;28;20196;-42
2022/05/09 01:07:49;;;;;;;1.00;0.53;;;12.70;71.50;;;;;;5089963;28;20292;-40
2022/05/09 01:10:17;;;;;;;0.83;0.50;;;12.70;71.40;;;;;;5088068;28;20185;-46
2022/05/09 01:12:47;;;;;;;3.80;0.60;;;12.70;71.30;;;;;;5079291;28;20219;-43
2022/05/09 01:15:22;;;;;;;0.57;0.50;;;12.70;71.30;;;;;;5085245;28;20271;-46
2022/05/09 01:17:51;;;;;;;0.50;0.50;;;12.70;71.20;;;;;;5081164;28;20278;-44
2022/05/09 01:20:18;;;;;;;0.50;0.40;;;12.70;71.30;;;;;;5098507;28;20213;-42
2022/05/09 01:22:47;;;;;;;0.50;0.50;;;12.70;71.40;;;;;;5086567;28;20202;-44
2022/05/09 01:25:16;;;;;;;0.77;0.60;;;12.70;71.30;;;;;;5101554;28;20212;-49
2022/05/09 01:27:46;;;;;;;0.57;0.57;;;12.70;71.30;;;;;;5080466;28;20274;-47
2022/05/09 01:30:20;;;;;;;0.97;0.50;;;12.80;71.30;;;;;;5086343;28;20283;-42
2022/05/09 01:32:57;;;;;;;0.77;0.53;;;12.70;71.20;;;;;;5067995;28;20267;-44
2022/05/09 01:35:29;;;;;;;0.90;0.50;;;12.70;71.30;;;;;;5085079;28;20299;-41
2022/05/09 01:38:18;;;;;;;0.47;0.47;;;12.70;71.40;;;;;;5081761;28;20199;-45
2022/05/09 01:40:45;;;;;;;0.40;0.40;;;12.70;71.40;;;;;;5082880;28;20205;-42
2022/05/09 01:43:13;;;;;;;0.40;0.30;;;12.70;71.40;;;;;;5081331;28;20278;-44
2022/05/09 01:45:40;;;;;;;2.20;0.40;;;12.60;71.40;;;;;;5088342;28;20277;-43
2022/05/09 01:50:51;;;;;;;0.50;0.50;;;12.60;71.70;;;;;;5078034;28;20196;-45
2022/05/09 01:53:20;;;;;;;0.43;0.43;;;12.60;71.70;;;;;;5089268;28;20641;-44
2022/05/09 01:55:47;;;;;;;0.60;0.50;;;12.60;71.60;;;;;;5088813;28;20195;-40
2022/05/09 01:58:14;;;;;;;0.60;0.50;;;12.60;71.60;;;;;;5078731;28;20232;-40
2022/05/09 02:00:43;;;;;;;0.53;0.50;;;12.50;71.50;;;;;;5084679;28;20292;-39
2022/05/09 02:03:10;;;;;;;0.53;0.53;;;12.60;71.60;;;;;;5087659;28;20284;-41
2022/05/09 02:05:38;;;;;;;0.50;0.50;;;12.60;72.30;;;;;;5085866;28;20211;-39
2022/05/09 02:08:06;;;;;;;0.53;0.50;;;12.60;71.30;;;;;;5093568;28;20215;-40
2022/05/09 02:10:34;;;;;;;0.80;0.80;;;12.60;71.40;;;;;;5085454;28;20729;-40
2022/05/09 02:13:01;;;;;;;0.90;0.80;;;12.60;71.20;;;;;;5078055;28;20183;-39
2022/05/09 02:15:31;;;;;;;0.70;0.70;;;12.60;71.20;;;;;;5086737;28;20194;-39
2022/05/09 02:17:58;;;;;;;4.30;0.70;;;12.50;71.20;;;;;;5086449;28;20200;-41
2022/05/09 02:20:26;;;;;;;0.80;0.80;;;12.60;71.30;;;;;;5083512;28;20228;-40
2022/05/09 02:22:53;;;;;;;1.10;0.80;;;12.50;71.10;;;;;;5081728;28;20587;-41
2022/05/09 02:28:08;;;;;;;0.70;0.70;;;12.50;71.00;;;;;;5087612;28;20211;-39
2022/05/09 02:30:35;;;;;;;0.80;0.80;;;12.50;70.90;;;;;;5083309;28;20195;-41
2022/05/09 02:33:03;;;;;;;0.60;0.60;;;12.50;70.90;;;;;;5087706;28;20192;-40
2022/05/09 02:35:30;;;;;;;0.90;0.70;;;12.50;70.90;;;;;;5086689;28;20193;-42
2022/05/09 02:37:57;;;;;;;0.60;0.60;;;12.50;70.90;;;;;;5087905;28;20211;-45
2022/05/09 02:40:25;;;;;;;0.60;0.60;;;12.50;70.90;;;;;;5088550;28;20217;-45
2022/05/09 02:42:52;;;;;;;0.77;0.60;;;12.50;71.00;;;;;;5086147;28;20196;-44
2022/05/09 02:45:21;;;;;;;0.80;0.77;;;12.50;70.90;;;;;;5083188;28;20308;-43
2022/05/09 02:47:49;;;;;;;0.77;0.60;;;12.50;71.00;;;;;;5089266;28;20277;-47
2022/05/09 02:50:16;;;;;;;0.47;0.47;;;12.40;70.90;;;;;;5078255;28;20570;-46
2022/05/09 02:52:44;;;;;;;2.57;0.60;;;12.40;70.90;;;;;;5087571;28;20204;-47
2022/05/09 02:55:12;;;;;;;0.50;0.50;;;12.40;70.90;;;;;;5106051;28;20219;-49
2022/05/09 02:57:40;;;;;;;0.83;0.50;;;12.40;70.90;;;;;;5088355;28;20693;-48
2022/05/09 03:00:10;;;;;;;0.40;0.40;;;12.40;70.90;;;;;;5092287;28;20193;-48
2022/05/09 03:02:38;;;;;;;0.50;0.50;;;12.30;70.80;;;;;;5087257;28;20549;-44
2022/05/09 03:05:07;;;;;;;0.60;0.60;;;12.30;70.80;;;;;;5095143;28;20251;-49
2022/05/09 03:07:35;;;;;;;1.70;0.60;;;12.30;70.90;;;;;;5090266;28;20198;-49
2022/05/09 03:10:03;;;;;;;0.53;0.53;;;12.30;70.80;;;;;;5088247;28;20289;-41
2022/05/09 03:12:31;;;;;;;0.60;0.60;;;12.30;70.80;;;;;;5103816;28;20701;-47
2022/05/09 03:14:58;;;;;;;0.53;0.53;;;12.30;70.60;;;;;;5086018;28;20333;-43
2022/05/09 03:17:25;;;;;;;0.70;0.70;;;12.30;70.40;;;;;;5081758;28;20197;-46
2022/05/09 03:19:54;;;;;;;0.47;0.47;;;12.40;70.40;;;;;;5090251;28;20196;-47
2022/05/09 03:22:21;;;;;;;0.50;0.50;;;12.40;70.20;;;;;;5072792;28;20217;-45
2022/05/09 03:24:49;;;;;;;0.67;0.60;;;12.40;70.10;;;;;;5089986;28;20204;-45
2022/05/09 03:27:16;;;;;;;0.80;0.80;;;12.40;69.90;;;;;;5091916;28;20725;-49
2022/05/09 03:29:43;;;;;;;1.37;0.90;;;12.40;69.90;;;;;;5090112;28;20200;-46
2022/05/09 03:32:11;;;;;;;1.87;1.10;;;12.40;69.80;;;;;;5086228;28;20192;-43
2022/05/09 03:34:38;;;;;;;1.37;1.10;;;12.40;69.70;;;;;;5089603;28;21077;-45
2022/05/09 03:37:07;;;;;;;1.90;1.00;;;12.30;69.60;;;;;;5092037;28;20201;-42
2022/05/09 03:39:34;;;;;;;1.30;1.13;;;12.40;69.60;;;;;;5090438;28;20676;-47
2022/05/09 03:42:01;;;;;;;1.37;1.10;;;12.40;69.50;;;;;;5091800;28;20208;-41
2022/05/09 03:44:29;;;;;;;1.27;1.17;;;12.40;69.30;;;;;;5089173;28;20198;-48
2022/05/09 03:46:56;;;;;;;0.90;0.90;;;12.40;69.30;;;;;;5090146;28;20747;-46
2022/05/09 03:49:23;;;;;;;0.63;0.63;;;12.40;69.30;;;;;;5090230;28;20216;-44
2022/05/09 03:51:50;;;;;;;0.77;0.70;;;12.40;69.20;;;;;;5088216;28;20224;-45
2022/05/09 03:54:19;;;;;;;0.70;0.70;;;12.40;69.20;;;;;;5086259;28;20260;-45
2022/05/09 03:56:46;;;;;;;0.70;0.70;;;12.50;69.30;;;;;;5091492;28;20276;-42
2022/05/09 03:59:14;;;;;;;0.93;0.67;;;12.50;69.20;;;;;;5084881;28;20239;-43
2022/05/09 04:01:41;;;;;;;0.60;0.60;;;12.50;69.20;;;;;;5089989;28;20205;-42
2022/05/09 04:04:10;;;;;;;0.73;0.50;;;12.50;69.20;;;;;;5083573;28;20742;-40
2022/05/09 04:06:37;;;;;;;0.47;0.47;;;12.50;69.20;;;;;;5086411;28;20200;-41
2022/05/09 04:09:05;;;;;;;0.30;0.30;;;12.50;69.10;;;;;;5090844;28;20340;-40
2022/05/09 04:11:35;;;;;;;0.33;0.33;;;12.50;69.10;;;;;;5081020;28;20212;-46
2022/05/09 04:14:02;;;;;;;1.13;0.50;;;12.50;69.20;;;;;;5081599;28;20217;-45
2022/05/09 04:19:13;;;;;;;0.30;0.30;;;12.60;69.20;;;;;;5090254;28;20181;-43
2022/05/09 04:21:41;;;;;;;0.40;0.40;;;12.60;69.20;;;;;;5088984;28;20209;-42
2022/05/09 04:24:08;;;;;;;0.40;0.40;;;12.60;69.30;;;;;;5094041;28;20224;-42
2022/05/09 04:26:37;;;;;;;0.37;0.37;;;12.60;69.40;;;;;;5090075;28;20201;-45
2022/05/09 04:29:05;;;;;;;0.40;0.40;;;12.70;69.50;;;;;;5075143;28;20343;-43
2022/05/09 04:31:32;;;;;;;0.30;0.30;;;12.70;69.50;;;;;;5087473;28;20279;-40
2022/05/09 04:34:00;;;;;;;0.37;0.37;;;12.70;69.50;;;;;;5089985;28;20193;-47
2022/05/09 04:36:28;;;;;;;0.30;0.30;;;12.80;69.50;;;;;;5085159;28;20213;-48
2022/05/09 04:38:56;;;;;;;0.40;0.40;;;12.80;69.60;;;;;;5078477;28;20276;-43
2022/05/09 04:41:24;;;;;;;0.77;0.30;;;12.90;69.70;;;;;;5080970;28;20214;-48
2022/05/09 04:43:52;;;;;;;0.57;0.57;;;12.90;70.40;;;;;;5084265;28;20520;-45
2022/05/09 04:46:19;;;;;;;0.77;0.40;;;12.90;69.70;;;;;;5087849;28;20181;-45
2022/05/09 04:48:47;;;;;;;0.33;0.33;;;12.90;69.60;;;;;;5088354;28;20282;-48
2022/05/09 04:51:15;;;;;;;0.50;0.47;;;12.90;69.60;;;;;;5088874;28;20197;-46
2022/05/09 04:53:42;;;;;;;0.50;0.50;;;13.00;69.40;;;;;;5090787;28;20192;-43
2022/05/09 04:56:10;;;;;;;0.50;0.50;;;13.00;69.10;;;;;;5089566;28;20671;-44
2022/05/09 04:58:37;;;;;;;0.47;0.47;;;13.00;68.80;;;;;;5090059;28;20226;-40
2022/05/09 05:01:05;;;;;;;0.30;0.30;;;13.00;68.40;;;;;;5089157;28;20221;-43
2022/05/09 05:03:33;;;;;;;3.13;0.57;;;13.00;67.90;;;;;;5090903;28;20197;-45
2022/05/09 05:06:00;;;;;;;1.70;0.50;;;13.00;67.30;;;;;;5094230;28;20197;-42
2022/05/09 05:08:33;;;;;;;0.50;0.50;;;13.00;66.70;;;;;;5087539;28;20205;-40
2022/05/09 05:11:00;;;;;;;0.53;0.37;;;12.90;66.50;;;;;;5104856;28;20197;-40
2022/05/09 05:13:28;;;;;;;1.43;0.77;;;12.90;66.40;;;;;;5084216;28;20230;-48
2022/05/09 05:15:56;;;;;;;0.53;0.53;;;12.90;65.90;;;;;;5089867;28;20204;-44
2022/05/09 05:18:27;;;;;;;0.70;0.50;;;12.80;65.50;;;;;;5079640;28;20231;-43
2022/05/09 05:20:54;;;;;;;1.63;0.83;;;12.80;65.60;;;;;;5088513;28;20207;-45
2022/05/09 05:23:22;;;;;;;0.40;0.40;;;12.80;65.50;;;;;;5084853;28;20189;-44
2022/05/09 05:25:49;;;;;;;0.80;0.50;;;12.90;65.50;;;;;;5089907;28;20204;-48
2022/05/09 05:28:17;;;;;;;0.50;0.50;;;12.90;65.10;;;;;;5070764;28;20213;-44
2022/05/09 05:30:45;;;;;;;1.10;0.60;;;12.90;64.90;;;;;;5088993;28;20203;-39
2022/05/09 05:33:12;;;;;;;1.77;0.70;;;12.90;64.50;;;;;;5086597;28;20208;-38
2022/05/09 05:35:41;;;;;;;1.53;0.73;;;12.90;63.80;;;;;;5088187;28;20197;-39
2022/05/09 05:38:08;;;;;;;0.50;0.50;;;12.80;63.10;;;;;;5089948;28;20214;-39
2022/05/09 05:40:36;;;;;;;1.33;0.60;;;12.80;62.60;;;;;;5089656;28;20205;-39
2022/05/09 05:43:03;;;;;;;0.60;0.60;;;12.80;62.50;;;;;;5085523;28;20220;-39
2022/05/09 05:45:30;;;;;;;0.83;0.60;;;12.80;61.80;;;;;;5089317;28;20203;-39
2022/05/09 05:47:57;;;;;;;0.47;0.47;;;12.80;61.70;;;;;;5089661;28;20285;-40
2022/05/09 05:50:24;;;;;;;2.10;0.43;;;12.90;61.80;;;;;;5090018;28;20228;-49
2022/05/09 05:52:53;;;;;;;1.17;0.70;;;12.90;61.20;;;;;;5094535;28;20545;-46
2022/05/09 05:55:21;;;;;;;1.43;0.90;;;12.90;59.50;;;;;;5085122;28;20195;-46
2022/05/09 05:57:48;;;;;;;0.80;0.63;;;12.90;58.90;;;;;;5078664;28;20791;-40
2022/05/09 06:00:19;;;;;;;0.63;0.63;;;12.90;58.80;;;;;;5076063;28;20705;-46
2022/05/09 06:02:46;;;;;;;0.50;0.50;;;13.00;58.80;;;;;;5088191;28;20713;-41
2022/05/09 06:05:14;;;;;;;0.50;0.50;;;13.00;58.40;;;;;;5087688;28;20204;-43
2022/05/09 06:07:42;;;;;;;0.60;0.60;;;13.00;57.70;;;;;;5102052;28;20205;-47
2022/05/09 06:10:12;;;;;;;0.50;0.50;;;13.00;57.20;;;;;;5088522;28;20199;-47
2022/05/09 06:12:40;;;;;;;0.80;0.50;;;13.00;57.00;;;;;;5086349;28;20224;-44
2022/05/09 06:15:28;;;;;;;1.07;0.40;;;13.10;56.60;;;;;;5090798;28;20605;-47
2022/05/09 06:17:57;;;;;;;0.70;0.70;;;13.20;56.70;;;;;;5086637;28;20197;-46
2022/05/09 06:20:24;;;;;;;0.40;0.40;;;13.20;56.60;;;;;;5083389;28;20180;-50
2022/05/09 06:22:54;;;;;;;0.40;0.40;;;13.30;56.40;;;;;;5103981;28;20565;-41
2022/05/09 06:25:23;;;;;;;0.60;0.60;;;13.30;56.20;;;;;;5088835;28;20204;-41
2022/05/09 06:27:51;;;;;;;0.50;0.50;;;13.30;56.20;;;;;;5088490;28;20202;-41
2022/05/09 06:30:20;;;;;;;0.90;0.60;;;13.40;56.10;;;;;;5088324;28;20219;-47
2022/05/09 06:32:47;;;;;;;0.50;0.50;;;13.50;56.80;;;;;;5087454;28;20452;-42
2022/05/09 06:35:20;;;;;;;0.50;0.50;;;13.50;55.90;;;;;;5085431;28;20210;-44
2022/05/09 06:37:47;;;;;;;0.43;0.43;;;13.60;55.60;;;;;;5084868;28;20263;-39
2022/05/09 06:40:15;;;;;;;0.37;0.37;;;13.60;55.40;;;;;;5087163;28;20224;-42
2022/05/09 06:42:44;;;;;;;0.50;0.50;;;13.70;55.30;;;;;;5087607;28;20210;-46
2022/05/09 06:45:12;;;;;;;0.50;0.40;;;13.70;55.30;;;;;;5088122;28;20219;-41
2022/05/09 06:47:45;;;;;;;0.40;0.40;;;13.80;55.40;;;;;;5098239;28;20209;-40
2022/05/09 06:50:12;;;;;;;0.50;0.50;;;13.90;55.60;;;;;;5086655;28;20216;-42
2022/05/09 06:52:41;;;;;;;0.40;0.40;;;14.00;55.50;;;;;;5086033;28;20706;-43
2022/05/09 06:55:09;;;;;;;0.37;0.37;;;14.10;55.50;;;;;;5087345;28;20201;-39
2022/05/09 06:57:38;;;;;;;1.40;0.50;;;14.10;55.40;;;;;;5087939;28;20231;-40
2022/05/09 07:00:09;;;;;;;0.50;0.50;;;14.20;55.40;;;;;;5087838;28;20205;-42
2022/05/09 07:02:36;;;;;;;0.50;0.50;;;14.30;55.30;;;;;;5087976;28;20205;-38
2022/05/09 07:05:04;;;;;;;0.50;0.50;;;14.30;55.00;;;;;;5084797;28;20220;-41
2022/05/09 07:07:38;;;;;;;0.63;0.50;;;14.40;54.80;;;;;;5088378;28;20193;-40
2022/05/09 07:10:06;;;;;;;0.40;0.40;;;14.50;54.60;;;;;;5088263;28;20206;-41
2022/05/09 07:12:42;;;;;;;0.73;0.60;;;14.50;54.00;;;;;;5084443;28;20190;-38
2022/05/09 07:15:11;;;;;;;0.30;0.30;;;14.50;53.70;;;;;;5087721;28;20203;-38
2022/05/09 07:17:38;;;;;;;0.50;0.50;;;14.50;54.10;;;;;;5085614;28;20199;-38
2022/05/09 07:20:07;;;;;;;0.50;0.50;;;14.60;52.90;;;;;;5086240;28;20651;-40
2022/05/09 07:22:34;;;;;;;0.50;0.50;;;14.70;52.70;;;;;;5087877;28;20206;-39
2022/05/09 07:25:02;;;;;;;0.30;0.30;;;14.80;52.40;;;;;;5086402;28;20238;-44
2022/05/09 07:27:29;;;;;;;0.47;0.37;;;14.90;52.20;;;;;;5089569;28;20195;-43
2022/05/09 07:29:57;;;;;;;0.70;0.40;;;15.00;51.80;;;;;;5091826;28;20249;-38
2022/05/09 07:32:25;;;;;;;0.90;0.37;;;15.10;51.60;;;;;;5090359;28;20198;-39
2022/05/09 07:34:53;;;;;;;0.60;0.60;;;15.20;51.10;;;;;;5089754;28;20293;-41
2022/05/09 07:37:21;;;;;;;0.50;0.47;;;15.30;50.60;;;;;;5090845;28;20195;-39
2022/05/09 07:39:48;;;;;;;0.60;0.40;;;15.30;50.40;;;;;;5106409;28;20659;-38
2022/05/09 07:42:15;;;;;;;0.53;0.53;;;15.40;50.40;;;;;;5091609;28;20736;-39
2022/05/09 07:44:43;;;;;;;0.37;0.37;;;15.50;49.80;;;;;;5096490;28;20214;-39
2022/05/09 07:47:10;;;;;;;0.53;0.53;;;15.40;49.70;;;;;;5091122;28;20283;-37
2022/05/09 07:49:39;;;;;;;0.50;0.50;;;15.50;49.90;;;;;;5092442;28;20232;-39
2022/05/09 07:52:08;;;;;;;0.53;0.50;;;15.60;50.10;;;;;;5090211;28;20208;-38
2022/05/09 07:54:35;;;;;;;0.60;0.60;;;15.60;49.90;;;;;;5090822;28;20200;-41
2022/05/09 07:57:03;;;;;;;1.13;0.80;;;15.70;49.80;;;;;;5105333;28;20285;-38
2022/05/09 07:59:30;;;;;;;0.70;0.70;;;15.70;49.80;;;;;;5087127;28;20232;-39
2022/05/09 08:01:57;;;;;;;2.07;0.70;;;15.80;49.70;;;;;;5088820;28;20222;-45
2022/05/09 08:04:25;;;;;;;0.40;0.40;;;15.90;49.80;;;;;;5085615;28;20207;-39
2022/05/09 08:06:53;;;;;;;0.70;0.70;;;15.90;49.90;;;;;;5088840;28;20288;-39
2022/05/09 08:09:21;;;;;;;0.50;0.50;;;16.00;50.00;;;;;;5089722;28;20193;-39
2022/05/09 08:11:48;;;;;;;0.80;0.50;;;16.00;50.00;;;;;;5089294;28;20226;-42
2022/05/09 08:14:15;;;;;;;0.83;0.80;;;16.10;49.80;;;;;;5089810;28;20202;-37
2022/05/09 08:16:43;;;;;;;0.50;0.50;;;16.10;49.70;;;;;;5093612;28;20211;-44
2022/05/09 08:19:11;;;;;;;0.47;0.47;;;16.10;49.90;;;;;;5088094;28;20200;-45
2022/05/09 08:21:39;;;;;;;0.60;0.60;;;16.20;50.10;;;;;;5104816;28;20354;-38
2022/05/09 08:24:09;;;;;;;0.40;0.40;;;16.30;49.90;;;;;;5090075;28;20230;-39
2022/05/09 08:26:36;;;;;;;0.43;0.43;;;16.30;49.80;;;;;;5105768;28;20203;-39
2022/05/09 08:29:04;;;;;;;0.53;0.53;;;16.40;49.90;;;;;;5088574;28;20572;-37
2022/05/09 08:31:32;;;;;;;0.40;0.40;;;16.50;49.80;;;;;;5090289;28;20218;-40
2022/05/09 08:33:59;;;;;;;0.73;0.73;;;16.40;49.30;;;;;;5089163;28;20709;-38
2022/05/09 08:39:14;;;;;;;0.93;0.63;;;16.60;49.30;;;;;;5080829;28;20663;-39
2022/05/09 08:41:54;;;;;;;0.40;0.40;;;16.60;49.00;;;;;;5076454;28;20208;-41
2022/05/09 08:44:46;;;;;;;1.80;0.50;;;16.70;49.00;;;;;;5088555;28;20204;-37
2022/05/09 08:47:49;;;;;;;0.53;0.47;;;16.80;49.00;;;;;;5087639;28;20208;-38
2022/05/09 08:50:25;;;;;;;0.83;0.43;;;16.90;49.00;;;;;;5085251;28;20196;-40
2022/05/09 08:52:59;;;;;;;0.40;0.40;;;17.00;48.80;;;;;;5089865;28;20656;-38
2022/05/09 08:55:33;;;;;;;0.40;0.40;;;17.10;49.30;;;;;;5089862;28;20226;-42
2022/05/09 08:58:06;;;;;;;0.40;0.40;;;17.30;50.10;;;;;;5089921;28;20555;-39
2022/05/09 09:00:34;;;;;;;0.40;0.40;;;17.30;50.10;;;;;;5090260;28;20192;-40
2022/05/09 09:03:13;;;;;;;0.63;0.40;;;17.40;50.60;;;;;;5089191;28;20212;-39
2022/05/09 09:05:43;;;;;;;0.43;0.40;;;17.60;51.00;;;;;;5088256;28;20658;-38
2022/05/09 09:08:19;;;;;;;0.87;0.60;;;17.70;51.10;;;;;;5098344;28;20212;-38
2022/05/09 09:10:54;;;;;;;0.47;0.47;;;17.90;51.10;;;;;;5089672;28;20192;-38
2022/05/09 09:13:34;;;;;;;0.73;0.40;;;18.00;51.10;;;;;;5080963;28;20267;-38
2022/05/09 09:16:16;;;;;;;0.60;0.40;;;18.10;51.00;;;;;;5089425;28;20200;-39
2022/05/09 09:19:07;;;;;;;0.53;0.40;;;18.20;50.70;;;;;;5089415;28;20221;-39
2022/05/09 09:21:46;;;;;;;0.60;0.50;;;18.20;50.40;;;;;;5089015;28;20195;-38
2022/05/09 09:24:27;;;;;;;0.43;0.43;;;18.20;50.00;;;;;;5087639;28;20217;-45
2022/05/09 09:27:04;;;;;;;0.50;0.50;;;18.30;50.20;;;;;;5088034;28;20541;-40
2022/05/09 09:29:35;;;;;;;0.47;0.47;;;18.40;52.00;;;;;;5088943;28;20199;-44
2022/05/09 09:32:07;;;;;;;0.50;0.50;;;18.50;51.60;;;;;;5078496;28;20218;-39
2022/05/09 09:34:41;;;;;;;0.50;0.50;;;18.70;51.80;;;;;;5087738;28;20225;-41
2022/05/09 09:37:12;;;;;;;0.40;0.40;;;18.80;51.50;;;;;;5087353;28;20559;-39
2022/05/09 09:39:39;;;;;;;0.93;0.50;;;18.90;51.30;;;;;;5088073;28;20310;-39
2022/05/09 09:42:08;;;;;;;0.77;0.50;;;18.90;50.60;;;;;;5089677;28;20674;-39
2022/05/09 09:44:41;;;;;;;1.75;0.60;;;18.90;50.20;;;;;;5091648;28;20749;-40
2022/05/09 09:47:12;;;;;;;0.40;0.40;;;19.00;49.90;;;;;;5084873;28;20838;-41
2022/05/09 09:49:40;;;;;;;0.40;0.40;;;19.00;49.80;;;;;;5078192;28;20201;-39
2022/05/09 09:52:20;;;;;;;0.63;0.63;;;19.10;49.60;;;;;;5089606;28;20205;-40
2022/05/09 09:54:53;;;;;;;0.60;0.60;;;19.10;48.70;;;;;;5089491;28;20207;-35
2022/05/09 09:57:23;;;;;;;0.93;0.63;;;19.10;48.40;;;;;;5082040;28;20197;-36
2022/05/09 09:59:51;;;;;;;0.63;0.63;;;19.10;47.70;;;;;;5088916;28;20282;-36
2022/05/09 10:02:25;;;;;;;0.40;0.40;;;19.20;47.60;;;;;;5088832;28;20215;-36
2022/05/09 10:04:55;;;;;;;0.43;0.43;;;19.20;47.70;;;;;;5076345;28;20204;-36
2022/05/09 10:07:29;;;;;;;1.70;0.68;;;19.30;47.40;;;;;;5087715;28;20200;-35
2022/05/09 10:10:12;;;;;;;0.50;0.50;;;19.40;46.50;;;;;;5089540;28;20192;-35
2022/05/09 10:12:44;;;;;;;0.70;0.70;;;19.30;45.90;;;;;;5081497;28;20185;-42
2022/05/09 10:15:30;;;;;;;1.42;0.75;;;19.40;45.70;;;;;;5083255;28;20192;-35
2022/05/09 10:17:58;;;;;;;0.80;0.80;;;19.40;45.30;;;;;;5086508;28;20757;-35
2022/05/09 10:20:34;;;;;;;0.65;0.65;;;19.30;41.60;;;;;;5094140;28;20229;-35
2022/05/09 10:26:00;;;;;;;0.60;0.60;;;19.20;42.70;;;;;;5082585;28;20195;-36
2022/05/09 10:28:32;;;;;;;0.73;0.73;;;19.20;42.40;;;;;;5088301;28;20211;-36
2022/05/09 10:31:05;;;;;;;0.80;0.60;;;19.20;41.90;;;;;;5094629;28;20206;-35
2022/05/09 10:33:39;;;;;;;0.88;0.52;;;19.20;41.10;;;;;;5087336;28;20192;-36
2022/05/09 10:36:12;;;;;;;0.52;0.50;;;19.20;41.30;;;;;;5081308;28;20212;-36
2022/05/09 10:38:45;;;;;;;0.60;0.60;;;19.20;41.30;;;;;;5087372;28;20294;-36
2022/05/09 10:41:20;;;;;;;1.45;0.50;;;19.10;41.20;;;;;;5085858;28;20210;-35
2022/05/09 10:43:54;;;;;;;0.73;0.50;;;19.10;41.10;;;;;;5087299;28;20208;-35
2022/05/09 10:46:25;;;;;;;2.22;0.70;;;19.10;41.40;;;;;;5088058;28;20207;-35
2022/05/09 10:49:00;;;;;;;0.52;0.52;;;19.20;41.50;;;;;;5083247;28;20221;-36
2022/05/09 10:51:32;;;;;;;0.43;0.43;;;19.20;41.50;;;;;;5078120;28;20211;-35
2022/05/09 10:54:07;;;;;;;0.73;0.57;;;19.10;41.40;;;;;;5088363;28;20225;-35
2022/05/09 10:56:42;;;;;;;0.60;0.60;;;19.10;41.60;;;;;;5087591;28;20545;-36
2022/05/09 10:59:12;;;;;;;0.55;0.55;;;19.10;41.40;;;;;;5088005;28;20228;-35
2022/05/09 11:01:44;;;;;;;1.10;0.88;;;19.00;41.20;;;;;;5095355;28;20209;-49
2022/05/09 11:04:14;;;;;;;2.10;0.85;;;19.10;42.20;;;;;;5090602;28;20293;-50
2022/05/09 11:06:49;;;;;;;2.30;0.60;;;19.20;40.60;;;;;;5090988;28;20214;-49
2022/05/09 11:09:45;;;;;;;0.60;0.60;;;19.20;39.40;;;;;;5091912;28;20279;-49
2022/05/09 11:12:35;;;;;;;0.60;0.60;;;19.00;39.10;;;;;;5086440;28;20209;-49
2022/05/09 11:15:15;;;;;;;0.40;0.40;;;19.00;40.00;;;;;;5079754;28;20322;-47
2022/05/09 11:17:56;;;;;;;2.45;0.50;;;19.00;40.40;;;;;;5090614;28;20192;-48
2022/05/09 11:20:38;;;;;;;0.50;0.50;;;19.00;40.70;;;;;;5083904;28;20203;-47
2022/05/09 11:23:36;;;;;;;0.73;0.50;;;19.10;40.90;;;;;;5086346;28;20307;-44
2022/05/09 11:26:14;;;;;;;0.63;0.63;;;19.00;40.00;;;;;;5043789;28;20242;-48
2022/05/09 11:29:06;;;;;;;2.55;0.80;;;19.00;40.10;;;;;;5088441;28;20286;-49
2022/05/09 11:31:46;;;;;;;0.80;0.80;;;19.00;39.00;;;;;;5083048;28;20208;-46
2022/05/09 11:34:29;;;;;;;1.13;1.00;;;19.00;37.80;;;;;;5090202;28;20663;-46
2022/05/09 11:37:08;;;;;;;0.95;0.70;;;18.90;37.80;;;;;;5083858;28;20489;-47
2022/05/09 11:39:45;;;;;;;0.80;0.80;;;18.90;38.30;;;;;;5091734;28;20199;-49
2022/05/09 11:45:20;;;;;;;0.82;0.70;;;18.90;37.90;;;;;;5101561;28;20540;-45
2022/05/09 11:47:58;;;;;;;0.65;0.65;;;18.90;37.20;;;;;;5089958;28;20215;-47
2022/05/09 11:50:35;;;;;;;0.75;0.75;;;18.80;37.20;;;;;;5089365;28;20304;-44
2022/05/09 11:53:03;;;;;;;0.75;0.75;;;18.70;37.60;;;;;;5089531;28;20188;-46
2022/05/09 11:55:31;;;;;;;0.77;0.77;;;18.70;37.40;;;;;;5091663;28;20655;-46
2022/05/09 11:58:01;;;;;;;0.90;0.70;;;18.70;37.90;;;;;;5090949;28;20381;-47
2022/05/09 12:00:51;;;;;;;1.08;0.88;;;18.80;38.00;;;;;;5082952;28;20752;-48
2022/05/09 12:04:02;;;;;;;0.70;0.70;;;18.80;38.00;;;;;;5087508;28;20216;-48
2022/05/09 12:06:36;;;;;;;0.70;0.70;;;18.80;38.20;;;;;;5084934;28;20208;-46
2022/05/09 12:09:09;;;;;;;0.70;0.70;;;18.80;37.60;;;;;;5090543;28;20195;-45
2022/05/09 12:11:53;;;;;;;1.23;0.70;;;18.80;38.00;;;;;;5091186;28;20196;-47
2022/05/09 12:14:53;;;;;;;0.57;0.57;;;18.80;37.90;;;;;;5088826;28;20194;-49
2022/05/09 12:17:34;;;;;;;0.70;0.70;;;18.80;37.20;;;;;;5051612;28;20235;-48
2022/05/09 12:20:02;;;;;;;0.50;0.50;;;18.80;36.90;;;;;;5086260;28;20194;-48
2022/05/09 12:22:47;;;;;;;3.10;0.50;;;18.80;37.00;;;;;;5089231;28;20307;-46
2022/05/09 12:26:03;;;;;;;0.60;0.60;;;18.80;37.20;;;;;;5090904;28;20524;-47
2022/05/09 12:28:33;;;;;;;0.50;0.50;;;18.80;37.10;;;;;;5090924;28;20665;-46
2022/05/09 12:31:04;;;;;;;2.10;0.95;;;18.90;37.20;;;;;;5089496;28;20203;-47
2022/05/09 12:33:36;;;;;;;0.80;0.80;;;18.90;37.20;;;;;;5088324;28;20290;-45
2022/05/09 12:36:08;;;;;;;0.70;0.70;;;18.80;37.10;;;;;;5076430;28;20663;-47
2022/05/09 12:38:41;;;;;;;0.80;0.60;;;18.80;37.70;;;;;;5090757;28;20671;-46
2022/05/09 12:41:12;;;;;;;0.50;0.50;;;18.80;38.30;;;;;;5090513;28;20204;-45
2022/05/09 12:43:45;;;;;;;0.40;0.40;;;18.90;38.60;;;;;;5090170;28;20208;-48
2022/05/09 12:46:21;;;;;;;0.65;0.60;;;18.90;38.70;;;;;;5090562;28;20288;-49
2022/05/09 12:48:50;;;;;;;0.50;0.50;;;18.90;38.50;;;;;;5089959;28;20198;-48
2022/05/09 12:51:18;;;;;;;0.50;0.50;;;18.80;38.70;;;;;;5092015;28;20201;-49
2022/05/09 12:53:47;;;;;;;0.70;0.70;;;18.90;38.80;;;;;;5088870;28;20196;-47
2022/05/09 12:56:18;;;;;;;0.40;0.40;;;18.90;39.00;;;;;;5090148;28;20192;-44
2022/05/09 12:58:46;;;;;;;1.95;0.57;;;18.90;39.10;;;;;;5082080;28;20242;-50
2022/05/09 13:01:17;;;;;;;1.38;0.70;;;19.00;39.40;;;;;;5090142;28;20197;-49
2022/05/09 13:03:47;;;;;;;0.55;0.55;;;19.00;40.10;;;;;;5085293;28;20232;-48
2022/05/09 13:06:16;;;;;;;0.47;0.47;;;18.90;39.50;;;;;;5088542;28;20620;-43
2022/05/09 13:08:43;;;;;;;0.40;0.40;;;18.90;39.70;;;;;;5080480;28;20200;-45
2022/05/09 13:11:15;;;;;;;0.63;0.43;;;18.90;39.80;;;;;;5085825;28;20197;-45
2022/05/09 13:13:58;;;;;;;0.60;0.60;;;18.90;40.10;;;;;;5082954;28;20245;-44
2022/05/09 13:16:32;;;;;;;2.10;0.77;;;18.90;40.40;;;;;;5082084;28;20192;-43
2022/05/09 13:19:00;;;;;;;1.25;0.63;;;18.80;40.70;;;;;;5078738;28;20563;-50
2022/05/09 13:21:38;;;;;;;2.20;0.77;;;18.80;40.80;;;;;;5085391;28;20196;-45
2022/05/09 13:24:08;;;;;;;0.70;0.70;;;18.70;40.60;;;;;;5081505;28;20203;-45